createdAt,value
2019-02-22T00:00:03.673Z,6.6
2019-02-22T00:01:03.193Z,6.6
2019-02-22T00:02:03.782Z,6.6
2019-02-22T00:03:03.017Z,6.6
2019-02-22T00:04:03.218Z,6.6
2019-02-22T00:05:03.584Z,6.6
2019-02-22T00:06:03.221Z,6.6
2019-02-22T00:07:02.902Z,6.6
2019-02-22T00:08:03.219Z,6.6
2019-02-22T00:09:02.958Z,6.6
2019-02-22T00:10:03.072Z,6.6
2019-02-22T00:11:03.668Z,6.6
2019-02-22T00:12:03.664Z,6.6
2019-02-22T00:13:03.653Z,6.6
2019-02-22T00:14:03.210Z,6.6
2019-02-22T00:15:03.488Z,6.6
2019-02-22T00:16:02.798Z,6.5
2019-02-22T00:17:03.348Z,6.5
2019-02-22T00:18:02.838Z,6.5
2019-02-22T00:19:03.211Z,6.5
2019-02-22T00:20:02.894Z,6.5
2019-02-22T00:21:03.221Z,6.5
2019-02-22T00:22:02.890Z,6.5
2019-02-22T00:23:03.863Z,6.5
2019-02-22T00:24:02.878Z,6.5
2019-02-22T00:25:03.629Z,6.5
2019-02-22T00:26:03.024Z,6.5
2019-02-22T00:27:03.455Z,6.5
2019-02-22T00:28:03.066Z,6.6
2019-02-22T00:29:03.580Z,6.5
2019-02-22T00:30:03.206Z,6.5
2019-02-22T00:31:03.215Z,6.6
2019-02-22T00:32:02.912Z,6.6
2019-02-22T00:33:03.140Z,6.6
2019-02-22T00:34:03.606Z,6.6
2019-02-22T00:35:03.084Z,6.6
2019-02-22T00:36:03.052Z,6.6
2019-02-22T00:37:04.230Z,6.6
2019-02-22T00:38:03.285Z,6.6
2019-02-22T00:39:02.841Z,6.6
2019-02-22T00:40:03.232Z,6.6
2019-02-22T00:41:03.751Z,6.6
2019-02-22T00:42:03.064Z,6.6
2019-02-22T00:43:02.763Z,6.6
2019-02-22T00:44:03.409Z,6.6
2019-02-22T00:45:02.981Z,6.6
2019-02-22T00:46:03.222Z,6.6
2019-02-22T00:47:03.011Z,6.6
2019-02-22T00:48:03.352Z,6.6
2019-02-22T00:49:03.638Z,6.6
2019-02-22T00:50:03.115Z,6.6
2019-02-22T00:51:03.922Z,6.6
2019-02-22T00:52:03.216Z,6.6
2019-02-22T00:53:03.690Z,6.6
2019-02-22T00:54:03.211Z,6.6
2019-02-22T00:55:03.693Z,6.6
2019-02-22T00:56:03.183Z,6.6
2019-02-22T00:57:02.966Z,6.6
2019-02-22T00:58:03.574Z,6.6
2019-02-22T00:59:02.912Z,6.6
2019-02-22T01:00:04.327Z,6.6
2019-02-22T01:01:03.232Z,6.6
2019-02-22T01:02:02.952Z,6.6
2019-02-22T01:03:03.296Z,6.6
2019-02-22T01:04:02.716Z,6.6
2019-02-22T01:05:03.702Z,6.6
2019-02-22T01:06:02.822Z,6.6
2019-02-22T01:07:03.395Z,6.6
2019-02-22T01:08:03.256Z,6.6
2019-02-22T01:09:03.271Z,6.6
2019-02-22T01:10:02.977Z,6.6
2019-02-22T01:11:03.458Z,6.6
2019-02-22T01:12:03.048Z,6.6
2019-02-22T01:13:03.324Z,6.6
2019-02-22T01:14:02.765Z,6.6
2019-02-22T01:15:02.899Z,6.6
2019-02-22T01:16:02.728Z,6.6
2019-02-22T01:17:02.972Z,6.6
2019-02-22T01:18:03.682Z,6.6
2019-02-22T01:19:03.014Z,6.6
2019-02-22T01:20:03.749Z,6.6
2019-02-22T01:21:03.087Z,6.6
2019-02-22T01:22:03.370Z,6.6
2019-02-22T01:23:03.307Z,6.7
2019-02-22T01:24:03.137Z,6.6
2019-02-22T01:25:03.445Z,6.7
2019-02-22T01:26:03.083Z,6.7
2019-02-22T01:27:03.627Z,6.7
2019-02-22T01:28:03.142Z,6.7
2019-02-22T01:29:03.499Z,6.7
2019-02-22T01:30:03.282Z,6.7
2019-02-22T01:31:03.410Z,6.7
2019-02-22T01:32:03.269Z,6.7
2019-02-22T01:33:03.765Z,6.7
2019-02-22T01:34:03.349Z,6.8
2019-02-22T01:35:03.091Z,6.8
2019-02-22T01:36:03.532Z,6.7
2019-02-22T01:37:02.877Z,6.8
2019-02-22T01:38:03.264Z,6.8
2019-02-22T01:39:03.412Z,6.8
2019-02-22T01:40:03.659Z,6.8
2019-02-22T01:41:02.728Z,6.8
2019-02-22T01:42:03.486Z,6.8
2019-02-22T01:43:03.421Z,6.8
2019-02-22T01:44:03.305Z,6.8
2019-02-22T01:45:03.606Z,6.9
2019-02-22T01:46:03.140Z,6.9
2019-02-22T01:47:03.523Z,6.9
2019-02-22T01:48:03.363Z,6.8
2019-02-22T01:49:03.710Z,6.8
2019-02-22T01:50:03.215Z,6.9
2019-02-22T01:51:03.016Z,6.9
2019-02-22T01:52:03.180Z,6.9
2019-02-22T01:53:03.415Z,6.9
2019-02-22T01:54:02.606Z,6.9
2019-02-22T01:55:03.329Z,6.9
2019-02-22T01:56:03.843Z,6.9
2019-02-22T01:57:03.167Z,6.9
2019-02-22T01:58:03.049Z,6.9
2019-02-22T01:59:03.431Z,6.9
2019-02-22T02:00:03.077Z,6.9
2019-02-22T02:01:03.903Z,6.9
2019-02-22T02:02:03.259Z,6.9
2019-02-22T02:03:03.539Z,6.9
2019-02-22T02:04:02.872Z,6.9
2019-02-22T02:05:03.357Z,6.9
2019-02-22T02:06:03.372Z,6.9
2019-02-22T02:07:02.633Z,6.9
2019-02-22T02:08:03.170Z,6.9
2019-02-22T02:09:02.740Z,6.9
2019-02-22T02:10:03.106Z,6.9
2019-02-22T02:11:02.629Z,6.9
2019-02-22T02:12:02.912Z,6.9
2019-02-22T02:13:03.293Z,6.9
2019-02-22T02:14:02.917Z,6.9
2019-02-22T02:15:03.420Z,6.9
2019-02-22T02:16:03.679Z,6.9
2019-02-22T02:17:03.480Z,6.9
2019-02-22T02:18:03.046Z,6.9
2019-02-22T02:19:02.780Z,6.9
2019-02-22T02:20:03.180Z,6.9
2019-02-22T02:21:03.551Z,6.9
2019-02-22T02:22:02.891Z,6.9
2019-02-22T02:23:03.658Z,6.9
2019-02-22T02:24:03.143Z,6.9
2019-02-22T02:25:03.525Z,6.9
2019-02-22T02:26:02.902Z,6.9
2019-02-22T02:27:03.086Z,6.9
2019-02-22T02:28:03.427Z,6.9
2019-02-22T02:29:03.183Z,6.9
2019-02-22T02:30:03.734Z,6.9
2019-02-22T02:31:03.271Z,6.9
2019-02-22T02:32:02.778Z,7
2019-02-22T02:33:03.138Z,7
2019-02-22T02:34:02.933Z,7
2019-02-22T02:35:03.202Z,7
2019-02-22T02:36:03.579Z,7
2019-02-22T02:37:02.936Z,7.1
2019-02-22T02:38:03.753Z,7.1
2019-02-22T02:39:02.943Z,7.1
2019-02-22T02:40:04.270Z,7.1
2019-02-22T02:41:11.763Z,7.1
2019-02-22T02:42:03.403Z,7.1
2019-02-22T02:43:03.205Z,7.1
2019-02-22T02:44:03.508Z,7.1
2019-02-22T02:45:02.961Z,7.1
2019-02-22T02:46:03.755Z,7.1
2019-02-22T02:47:02.897Z,7.1
2019-02-22T02:48:03.079Z,7.1
2019-02-22T02:49:03.645Z,7.1
2019-02-22T02:50:03.579Z,7.1
2019-02-22T02:51:02.664Z,7.1
2019-02-22T02:52:03.221Z,7.1
2019-02-22T02:53:03.848Z,7.1
2019-02-22T02:54:02.930Z,7.1
2019-02-22T02:55:03.607Z,7.1
2019-02-22T02:56:03.138Z,7.1
2019-02-22T02:57:03.796Z,7.1
2019-02-22T02:58:03.360Z,7.1
2019-02-22T02:59:03.622Z,7.1
2019-02-22T03:00:03.241Z,7.1
2019-02-22T03:01:03.731Z,7.1
2019-02-22T03:02:02.816Z,7.1
2019-02-22T03:03:03.214Z,7.1
2019-02-22T03:04:02.855Z,7.1
2019-02-22T03:05:03.559Z,7.1
2019-02-22T03:06:03.244Z,7.1
2019-02-22T03:07:03.740Z,7.1
2019-02-22T03:08:03.093Z,7.1
2019-02-22T03:09:03.749Z,7.1
2019-02-22T03:10:03.146Z,7.1
2019-02-22T03:11:03.695Z,7.1
2019-02-22T03:12:02.748Z,7.1
2019-02-22T03:13:03.417Z,7.1
2019-02-22T03:14:03.160Z,7.1
2019-02-22T03:15:03.561Z,7.1
2019-02-22T03:16:03.418Z,7.1
2019-02-22T03:17:02.771Z,7.2
2019-02-22T03:18:03.357Z,7.1
2019-02-22T03:19:03.711Z,7.2
2019-02-22T03:20:03.477Z,7.1
2019-02-22T03:21:02.961Z,7.2
2019-02-22T03:22:03.698Z,7.2
2019-02-22T03:23:02.865Z,7.2
2019-02-22T03:24:03.657Z,7.2
2019-02-22T03:25:03.235Z,7.3
2019-02-22T03:26:03.278Z,7.2
2019-02-22T03:27:03.416Z,7.3
2019-02-22T03:28:02.736Z,7.3
2019-02-22T03:29:02.772Z,7.3
2019-02-22T03:30:03.633Z,7.3
2019-02-22T03:31:02.859Z,7.3
2019-02-22T03:32:03.665Z,7.3
2019-02-22T03:33:03.173Z,7.3
2019-02-22T03:34:03.837Z,7.4
2019-02-22T03:35:03.511Z,7.4
2019-02-22T03:36:02.888Z,7.4
2019-02-22T03:37:03.342Z,7.4
2019-02-22T03:38:02.713Z,7.4
2019-02-22T03:39:03.438Z,7.4
2019-02-22T03:40:02.916Z,7.4
2019-02-22T03:41:03.240Z,7.4
2019-02-22T03:42:03.596Z,7.4
2019-02-22T03:43:03.003Z,7.4
2019-02-22T03:44:03.484Z,7.4
2019-02-22T03:45:02.761Z,7.4
2019-02-22T03:46:02.933Z,7.4
2019-02-22T03:47:03.054Z,7.4
2019-02-22T03:48:03.452Z,7.4
2019-02-22T03:49:03.034Z,7.4
2019-02-22T03:50:03.526Z,7.4
2019-02-22T03:51:03.663Z,7.4
2019-02-22T03:52:03.483Z,7.4
2019-02-22T03:53:03.115Z,7.4
2019-02-22T03:54:03.237Z,7.4
2019-02-22T03:55:02.826Z,7.4
2019-02-22T03:56:03.661Z,7.4
2019-02-22T03:57:02.971Z,7.4
2019-02-22T03:58:03.660Z,7.4
2019-02-22T03:59:02.978Z,7.4
2019-02-22T04:00:03.651Z,7.5
2019-02-22T04:01:02.688Z,7.4
2019-02-22T04:02:03.462Z,7.4
2019-02-22T04:03:03.585Z,7.4
2019-02-22T04:04:03.270Z,7.4
2019-02-22T04:05:03.374Z,7.4
2019-02-22T04:06:03.394Z,7.5
2019-02-22T04:07:03.411Z,7.5
2019-02-22T04:08:02.835Z,7.4
2019-02-22T04:09:03.047Z,7.4
2019-02-22T04:10:02.731Z,7.4
2019-02-22T04:11:03.042Z,7.4
2019-02-22T04:12:03.721Z,7.3
2019-02-22T04:13:02.973Z,7.3
2019-02-22T04:14:03.776Z,7.4
2019-02-22T04:15:02.882Z,7.3
2019-02-22T04:16:03.383Z,7.3
2019-02-22T04:17:02.826Z,7.4
2019-02-22T04:18:03.628Z,7.4
2019-02-22T04:19:03.478Z,7.4
2019-02-22T04:20:03.050Z,7.4
2019-02-22T04:21:03.347Z,7.4
2019-02-22T04:22:03.085Z,7.3
2019-02-22T04:23:03.701Z,7.4
2019-02-22T04:24:02.958Z,7.3
2019-02-22T04:25:03.873Z,7.3
2019-02-22T04:26:03.116Z,7.4
2019-02-22T04:27:03.652Z,7.4
2019-02-22T04:28:03.006Z,7.3
2019-02-22T04:29:03.382Z,7.3
2019-02-22T04:30:02.920Z,7.3
2019-02-22T04:31:03.381Z,7.3
2019-02-22T04:32:03.011Z,7.3
2019-02-22T04:33:03.510Z,7.3
2019-02-22T04:34:03.569Z,7.3
2019-02-22T04:35:03.444Z,7.3
2019-02-22T04:36:02.864Z,7.3
2019-02-22T04:37:03.594Z,7.3
2019-02-22T04:38:03.407Z,7.3
2019-02-22T04:39:03.643Z,7.3
2019-02-22T04:40:03.339Z,7.3
2019-02-22T04:41:03.806Z,7.3
2019-02-22T04:42:02.975Z,7.3
2019-02-22T04:43:03.691Z,7.3
2019-02-22T04:44:03.060Z,7.3
2019-02-22T04:45:03.681Z,7.3
2019-02-22T04:46:03.088Z,7.3
2019-02-22T04:47:03.296Z,7.3
2019-02-22T04:48:02.918Z,7.2
2019-02-22T04:49:03.584Z,7.2
2019-02-22T04:50:02.975Z,7.2
2019-02-22T04:51:03.332Z,7.1
2019-02-22T04:52:02.606Z,7.1
2019-02-22T04:53:03.177Z,7.1
2019-02-22T04:54:03.743Z,7.1
2019-02-22T04:55:03.278Z,7.1
2019-02-22T04:56:02.748Z,7.1
2019-02-22T04:57:03.124Z,7.1
2019-02-22T04:58:03.498Z,7.1
2019-02-22T04:59:03.959Z,7.1
2019-02-22T05:00:03.133Z,7
2019-02-22T05:01:02.831Z,7
2019-02-22T05:02:03.451Z,7
2019-02-22T05:03:03.711Z,7
2019-02-22T05:04:03.213Z,6.9
2019-02-22T05:05:03.654Z,6.9
2019-02-22T05:06:03.092Z,6.9
2019-02-22T05:07:03.650Z,6.9
2019-02-22T05:08:03.285Z,6.9
2019-02-22T05:09:03.833Z,6.9
2019-02-22T05:10:03.108Z,6.9
2019-02-22T05:11:03.535Z,6.9
2019-02-22T05:12:11.486Z,6.9
2019-02-22T05:13:03.321Z,6.9
2019-02-22T05:14:03.509Z,6.9
2019-02-22T05:15:13.232Z,6.9
2019-02-22T05:16:02.772Z,6.9
2019-02-22T05:17:03.443Z,6.9
2019-02-22T05:18:03.785Z,6.9
2019-02-22T05:19:03.439Z,6.9
2019-02-22T05:20:03.690Z,6.9
2019-02-22T05:21:03.146Z,6.9
2019-02-22T05:22:03.328Z,6.9
2019-02-22T05:23:07.706Z,6.9
2019-02-22T05:24:03.556Z,6.9
2019-02-22T05:25:03.291Z,6.9
2019-02-22T05:26:03.787Z,6.9
2019-02-22T05:27:03.499Z,6.9
2019-02-22T05:28:02.902Z,6.9
2019-02-22T05:29:03.286Z,6.9
2019-02-22T05:30:02.805Z,6.9
2019-02-22T05:31:03.163Z,6.9
2019-02-22T05:32:02.573Z,7
2019-02-22T05:33:03.538Z,7
2019-02-22T05:34:02.949Z,6.9
2019-02-22T05:35:03.667Z,6.9
2019-02-22T05:36:03.028Z,6.9
2019-02-22T05:37:03.258Z,6.9
2019-02-22T05:38:02.832Z,6.9
2019-02-22T05:39:03.327Z,6.9
2019-02-22T05:40:03.310Z,6.9
2019-02-22T05:41:03.332Z,6.9
2019-02-22T05:42:02.879Z,6.9
2019-02-22T05:43:03.540Z,6.9
2019-02-22T05:44:03.187Z,6.9
2019-02-22T05:45:03.518Z,6.9
2019-02-22T05:46:03.324Z,6.9
2019-02-22T05:47:03.387Z,6.9
2019-02-22T05:48:03.057Z,6.9
2019-02-22T05:49:03.283Z,6.9
2019-02-22T05:50:03.379Z,6.9
2019-02-22T05:51:03.463Z,6.9
2019-02-22T05:52:02.837Z,6.9
2019-02-22T05:53:03.880Z,6.9
2019-02-22T05:54:03.372Z,6.9
2019-02-22T05:55:03.076Z,6.9
2019-02-22T05:56:03.617Z,6.9
2019-02-22T05:57:03.067Z,6.9
2019-02-22T05:58:03.629Z,6.9
2019-02-22T05:59:02.931Z,6.9
2019-02-22T06:00:03.537Z,6.9
2019-02-22T06:01:02.592Z,6.9
2019-02-22T06:02:03.112Z,6.9
2019-02-22T06:03:03.029Z,6.9
2019-02-22T06:04:03.484Z,6.9
2019-02-22T06:05:02.765Z,6.9
2019-02-22T06:06:03.213Z,6.9
2019-02-22T06:07:02.979Z,6.9
2019-02-22T06:08:03.290Z,6.8
2019-02-22T06:09:03.673Z,6.9
2019-02-22T06:10:02.952Z,6.9
2019-02-22T06:11:02.786Z,6.9
2019-02-22T06:12:03.562Z,6.9
2019-02-22T06:13:02.808Z,6.9
2019-02-22T06:14:03.538Z,6.9
2019-02-22T06:15:03.214Z,6.9
2019-02-22T06:16:03.467Z,6.9
2019-02-22T06:17:15.133Z,6.9
2019-02-22T06:18:04.061Z,6.8
2019-02-22T06:19:02.871Z,6.9
2019-02-22T06:20:03.739Z,6.8
2019-02-22T06:21:03.563Z,6.9
2019-02-22T06:22:03.018Z,6.9
2019-02-22T06:23:02.826Z,6.8
2019-02-22T06:24:03.766Z,6.9
2019-02-22T06:25:02.972Z,6.9
2019-02-22T06:26:03.489Z,6.9
2019-02-22T06:27:03.676Z,6.8
2019-02-22T06:28:03.581Z,6.9
2019-02-22T06:29:02.735Z,6.9
2019-02-22T06:30:04.030Z,6.9
2019-02-22T06:31:03.232Z,6.9
2019-02-22T06:32:02.627Z,6.9
2019-02-22T06:33:03.302Z,6.9
2019-02-22T06:34:02.881Z,6.9
2019-02-22T06:35:03.375Z,6.9
2019-02-22T06:36:03.014Z,6.9
2019-02-22T06:37:03.388Z,6.9
2019-02-22T06:38:02.992Z,6.9
2019-02-22T06:39:02.893Z,6.9
2019-02-22T06:40:03.718Z,6.9
2019-02-22T06:41:02.957Z,6.8
2019-02-22T06:42:03.663Z,6.9
2019-02-22T06:43:03.617Z,6.9
2019-02-22T06:44:02.997Z,6.9
2019-02-22T06:45:02.966Z,6.9
2019-02-22T06:46:03.055Z,6.9
2019-02-22T06:47:03.032Z,6.9
2019-02-22T06:48:03.197Z,6.9
2019-02-22T06:49:03.133Z,6.9
2019-02-22T06:50:02.969Z,6.9
2019-02-22T06:51:02.853Z,6.9
2019-02-22T06:52:03.315Z,6.9
2019-02-22T06:53:02.898Z,6.9
2019-02-22T06:54:03.427Z,6.9
2019-02-22T06:55:03.244Z,6.9
2019-02-22T06:56:03.287Z,6.9
2019-02-22T06:57:02.860Z,6.9
2019-02-22T06:58:03.422Z,6.9
2019-02-22T06:59:03.601Z,6.9
2019-02-22T07:00:03.124Z,6.9
2019-02-22T07:01:03.392Z,6.9
2019-02-22T07:02:03.667Z,6.9
2019-02-22T07:03:03.225Z,6.9
2019-02-22T07:04:03.837Z,6.9
2019-02-22T07:05:02.970Z,6.9
2019-02-22T07:06:02.637Z,6.9
2019-02-22T07:07:03.194Z,6.9
2019-02-22T07:08:03.187Z,6.9
2019-02-22T07:09:03.395Z,7
2019-02-22T07:10:02.827Z,7
2019-02-22T07:11:03.475Z,6.9
2019-02-22T07:12:02.758Z,7
2019-02-22T07:13:03.204Z,7
2019-02-22T07:14:02.912Z,6.9
2019-02-22T07:15:02.917Z,6.9
2019-02-22T07:16:03.349Z,6.9
2019-02-22T07:17:03.403Z,6.9
2019-02-22T07:18:02.931Z,7
2019-02-22T07:19:03.882Z,7
2019-02-22T07:20:02.943Z,7
2019-02-22T07:21:03.394Z,7
2019-02-22T07:22:02.791Z,7
2019-02-22T07:23:03.354Z,7
2019-02-22T07:24:03.902Z,7.1
2019-02-22T07:25:02.807Z,7.1
2019-02-22T07:26:03.727Z,7.1
2019-02-22T07:27:03.227Z,7.1
2019-02-22T07:28:03.561Z,7.1
2019-02-22T07:29:03.292Z,7.1
2019-02-22T07:30:03.506Z,7.1
2019-02-22T07:31:02.846Z,7.1
2019-02-22T07:32:39.081Z,7.1
2019-02-22T07:33:02.828Z,7.1
2019-02-22T07:34:02.966Z,7.1
2019-02-22T07:35:03.263Z,7.1
2019-02-22T07:36:03.408Z,7.1
2019-02-22T07:37:03.225Z,7.1
2019-02-22T07:38:03.556Z,7.1
2019-02-22T07:39:03.312Z,7.1
2019-02-22T07:40:03.630Z,7.1
2019-02-22T07:41:02.961Z,7.2
2019-02-22T07:42:03.019Z,7.2
2019-02-22T07:43:08.535Z,7.3
2019-02-22T07:44:03.200Z,7.3
2019-02-22T07:45:03.044Z,7.3
2019-02-22T07:46:03.448Z,7.3
2019-02-22T07:47:03.643Z,7.3
2019-02-22T07:48:03.327Z,7.3
2019-02-22T07:49:02.714Z,7.3
2019-02-22T07:50:03.389Z,7.3
2019-02-22T07:51:02.931Z,7.3
2019-02-22T07:52:03.548Z,7.3
2019-02-22T07:53:02.963Z,7.3
2019-02-22T07:54:03.376Z,7.3
2019-02-22T07:55:03.007Z,7.3
2019-02-22T07:56:03.241Z,7.4
2019-02-22T07:57:02.954Z,7.3
2019-02-22T07:58:03.074Z,7.4
2019-02-22T07:59:03.702Z,7.4
2019-02-22T08:00:02.951Z,7.4
2019-02-22T08:01:03.760Z,7.4
2019-02-22T08:02:03.423Z,7.4
2019-02-22T08:03:03.006Z,7.4
2019-02-22T08:04:03.409Z,7.4
2019-02-22T08:05:02.722Z,7.4
2019-02-22T08:06:03.521Z,7.4
2019-02-22T08:07:02.946Z,7.4
2019-02-22T08:08:03.510Z,7.4
2019-02-22T08:09:03.212Z,7.4
2019-02-22T08:10:03.552Z,7.4
2019-02-22T08:11:03.102Z,7.4
2019-02-22T08:12:03.667Z,7.4
2019-02-22T08:13:02.554Z,7.4
2019-02-22T08:14:03.271Z,7.4
2019-02-22T08:15:03.717Z,7.4
2019-02-22T08:16:02.998Z,7.4
2019-02-22T08:17:03.676Z,7.4
2019-02-22T08:18:03.478Z,7.4
2019-02-22T08:19:03.338Z,7.4
2019-02-22T08:20:03.632Z,7.4
2019-02-22T08:21:03.307Z,7.4
2019-02-22T08:22:03.825Z,7.4
2019-02-22T08:23:02.963Z,7.4
2019-02-22T08:24:03.793Z,7.4
2019-02-22T08:25:02.881Z,7.4
2019-02-22T08:26:03.377Z,7.5
2019-02-22T08:27:03.639Z,7.4
2019-02-22T08:28:03.618Z,7.5
2019-02-22T08:29:03.438Z,7.4
2019-02-22T08:30:03.625Z,7.5
2019-02-22T08:31:03.102Z,7.5
2019-02-22T08:32:03.669Z,7.5
2019-02-22T08:33:03.267Z,7.6
2019-02-22T08:34:03.374Z,7.6
2019-02-22T08:35:03.093Z,7.6
2019-02-22T08:36:03.148Z,7.6
2019-02-22T08:37:03.475Z,7.6
2019-02-22T08:38:02.956Z,7.6
2019-02-22T08:39:03.538Z,7.6
2019-02-22T08:40:03.058Z,7.7
2019-02-22T08:41:03.675Z,7.7
2019-02-22T08:42:03.192Z,7.8
2019-02-22T08:43:03.707Z,7.8
2019-02-22T08:44:03.208Z,7.8
2019-02-22T08:45:03.283Z,7.8
2019-02-22T08:46:03.715Z,7.8
2019-02-22T08:47:03.610Z,7.8
2019-02-22T08:48:03.014Z,7.8
2019-02-22T08:49:03.085Z,7.9
2019-02-22T08:50:03.204Z,7.9
2019-02-22T08:51:03.231Z,7.9
2019-02-22T08:52:03.263Z,7.9
2019-02-22T08:53:03.852Z,7.9
2019-02-22T08:54:03.593Z,7.9
2019-02-22T08:55:03.712Z,7.9
2019-02-22T08:56:03.391Z,7.9
2019-02-22T08:57:03.652Z,7.9
2019-02-22T08:58:03.290Z,8
2019-02-22T08:59:02.967Z,8.1
2019-02-22T09:00:03.732Z,8.1
2019-02-22T09:01:02.927Z,8.1
2019-02-22T09:02:03.503Z,8.1
2019-02-22T09:03:03.026Z,8.1
2019-02-22T09:04:03.324Z,8.1
2019-02-22T09:05:02.896Z,8.1
2019-02-22T09:06:03.084Z,8.1
2019-02-22T09:07:03.586Z,8.1
2019-02-22T09:08:02.944Z,8.1
2019-02-22T09:09:03.281Z,8.1
2019-02-22T09:10:03.503Z,8.2
2019-02-22T09:11:03.190Z,8.2
2019-02-22T09:12:03.626Z,8.2
2019-02-22T09:13:02.982Z,8.2
2019-02-22T09:14:03.455Z,8.3
2019-02-22T09:15:03.227Z,8.2
2019-02-22T09:16:03.607Z,8.3
2019-02-22T09:17:03.153Z,8.3
2019-02-22T09:18:03.139Z,8.3
2019-02-22T09:19:03.556Z,8.3
2019-02-22T09:20:02.976Z,8.3
2019-02-22T09:21:03.110Z,8.3
2019-02-22T09:22:03.609Z,8.4
2019-02-22T09:23:02.981Z,8.4
2019-02-22T09:24:03.721Z,8.4
2019-02-22T09:25:03.651Z,8.4
2019-02-22T09:26:03.634Z,8.4
2019-02-22T09:27:03.402Z,8.5
2019-02-22T09:28:03.400Z,8.5
2019-02-22T09:29:03.335Z,8.5
2019-02-22T09:30:02.792Z,8.4
2019-02-22T09:31:03.163Z,8.5
2019-02-22T09:32:03.726Z,8.4
2019-02-22T09:33:03.189Z,8.5
2019-02-22T09:34:03.298Z,8.6
2019-02-22T09:35:03.055Z,8.6
2019-02-22T09:36:03.420Z,8.6
2019-02-22T09:37:03.609Z,8.6
2019-02-22T09:38:03.624Z,8.5
2019-02-22T09:39:02.802Z,8.5
2019-02-22T09:40:03.210Z,8.6
2019-02-22T09:41:03.099Z,8.5
2019-02-22T09:42:03.356Z,8.5
2019-02-22T09:43:03.165Z,8.4
2019-02-22T09:44:03.393Z,8.4
2019-02-22T09:45:03.177Z,8.4
2019-02-22T09:46:03.425Z,8.5
2019-02-22T09:47:02.667Z,8.5
2019-02-22T09:48:03.083Z,8.5
2019-02-22T09:49:02.721Z,8.5
2019-02-22T09:50:03.698Z,8.6
2019-02-22T09:51:03.741Z,8.6
2019-02-22T09:52:02.833Z,8.6
2019-02-22T09:53:03.529Z,8.6
2019-02-22T09:54:02.899Z,8.6
2019-02-22T09:55:03.784Z,8.6
2019-02-22T09:56:03.175Z,8.6
2019-02-22T09:57:02.736Z,8.6
2019-02-22T09:58:03.395Z,8.7
2019-02-22T09:59:03.152Z,8.8
2019-02-22T10:00:03.522Z,8.8
2019-02-22T10:01:02.828Z,8.8
2019-02-22T10:02:03.375Z,8.8
2019-02-22T10:03:03.315Z,8.8
2019-02-22T10:04:03.223Z,8.8
2019-02-22T10:05:03.197Z,8.7
2019-02-22T10:06:03.125Z,8.7
2019-02-22T10:07:03.670Z,8.6
2019-02-22T10:08:03.086Z,8.6
2019-02-22T10:09:04.202Z,8.5
2019-02-22T10:10:03.249Z,8.5
2019-02-22T10:11:03.350Z,8.5
2019-02-22T10:12:03.196Z,8.5
2019-02-22T10:13:03.421Z,8.5
2019-02-22T10:14:07.273Z,8.5
2019-02-22T10:15:03.541Z,8.5
2019-02-22T10:16:03.114Z,8.5
2019-02-22T10:17:04.268Z,8.5
2019-02-22T10:18:02.528Z,8.5
2019-02-22T10:19:03.194Z,8.6
2019-02-22T10:20:03.789Z,8.6
2019-02-22T10:21:03.528Z,8.6
2019-02-22T10:22:03.568Z,8.6
2019-02-22T10:23:03.076Z,8.6
2019-02-22T10:24:03.390Z,8.6
2019-02-22T10:25:03.064Z,8.6
2019-02-22T10:26:03.283Z,8.6
2019-02-22T10:27:03.667Z,8.7
2019-02-22T10:28:03.378Z,8.7
2019-02-22T10:29:03.756Z,8.6
2019-02-22T10:30:03.266Z,8.7
2019-02-22T10:31:02.807Z,8.7
2019-02-22T10:32:03.064Z,8.7
2019-02-22T10:33:03.565Z,8.7
2019-02-22T10:34:02.954Z,8.7
2019-02-22T10:35:03.484Z,8.7
2019-02-22T10:36:03.454Z,8.8
2019-02-22T10:37:03.054Z,8.8
2019-02-22T10:38:03.786Z,8.8
2019-02-22T10:39:03.183Z,8.9
2019-02-22T10:40:03.248Z,8.9
2019-02-22T10:41:03.259Z,8.9
2019-02-22T10:42:03.390Z,9
2019-02-22T10:43:03.090Z,9
2019-02-22T10:44:03.575Z,8.9
2019-02-22T10:45:02.755Z,8.9
2019-02-22T10:46:03.522Z,8.9
2019-02-22T10:47:02.952Z,9
2019-02-22T10:48:03.559Z,8.9
2019-02-22T10:49:03.283Z,8.9
2019-02-22T10:50:02.742Z,8.9
2019-02-22T10:51:02.979Z,8.9
2019-02-22T10:52:02.872Z,8.9
2019-02-22T10:53:03.347Z,8.9
2019-02-22T10:54:02.722Z,9.1
2019-02-22T10:55:03.767Z,9.1
2019-02-22T10:56:03.355Z,9.1
2019-02-22T10:57:03.224Z,9.1
2019-02-22T10:58:03.533Z,9.1
2019-02-22T10:59:03.056Z,9.3
2019-02-22T11:00:03.795Z,9.3
2019-02-22T11:01:03.118Z,9.3
2019-02-22T11:02:03.352Z,9.4
2019-02-22T11:03:02.853Z,9.4
2019-02-22T11:04:03.237Z,9.4
2019-02-22T11:05:03.969Z,9.5
2019-02-22T11:06:03.278Z,9.6
2019-02-22T11:07:03.685Z,9.5
2019-02-22T11:08:03.153Z,9.4
2019-02-22T11:09:03.867Z,9.5
2019-02-22T11:10:03.164Z,9.4
2019-02-22T11:11:03.718Z,9.4
2019-02-22T11:12:03.399Z,9.4
2019-02-22T11:13:03.021Z,9.5
2019-02-22T11:14:03.423Z,9.4
2019-02-22T11:15:03.200Z,9.4
2019-02-22T11:16:03.575Z,9.5
2019-02-22T11:17:03.335Z,9.6
2019-02-22T11:18:03.751Z,9.7
2019-02-22T11:19:02.840Z,9.7
2019-02-22T11:20:03.917Z,9.7
2019-02-22T11:21:02.700Z,9.7
2019-02-22T11:22:03.436Z,9.6
2019-02-22T11:23:03.836Z,9.6
2019-02-22T11:24:03.104Z,9.6
2019-02-22T11:25:03.598Z,9.6
2019-02-22T11:26:02.997Z,9.6
2019-02-22T11:27:03.531Z,9.6
2019-02-22T11:28:03.235Z,9.6
2019-02-22T11:29:03.616Z,9.6
2019-02-22T11:30:03.126Z,9.6
2019-02-22T11:31:03.301Z,9.6
2019-02-22T11:32:03.002Z,9.6
2019-02-22T11:33:02.755Z,9.6
2019-02-22T11:34:03.045Z,9.6
2019-02-22T11:35:03.744Z,9.7
2019-02-22T11:36:03.839Z,9.8
2019-02-22T11:37:03.261Z,9.7
2019-02-22T11:38:03.513Z,9.8
2019-02-22T11:39:03.574Z,9.8
2019-02-22T11:40:03.415Z,9.7
2019-02-22T11:41:02.915Z,9.7
2019-02-22T11:42:03.457Z,9.7
2019-02-22T11:43:03.082Z,9.8
2019-02-22T11:44:03.374Z,9.8
2019-02-22T11:45:02.988Z,9.8
2019-02-22T11:46:03.688Z,9.9
2019-02-22T11:47:03.001Z,9.8
2019-02-22T11:48:09.753Z,9.8
2019-02-22T11:49:03.007Z,9.8
2019-02-22T11:50:02.883Z,9.8
2019-02-22T11:51:03.349Z,9.8
2019-02-22T11:52:03.777Z,9.8
2019-02-22T11:53:03.444Z,9.6
2019-02-22T11:54:03.581Z,9.6
2019-02-22T11:55:03.222Z,9.6
2019-02-22T11:56:03.598Z,9.7
2019-02-22T11:57:03.194Z,9.7
2019-02-22T11:58:02.802Z,9.7
2019-02-22T11:59:03.372Z,9.7
2019-02-22T12:00:03.536Z,9.7
2019-02-22T12:01:02.949Z,9.8
2019-02-22T12:02:03.751Z,9.8
2019-02-22T12:03:25.197Z,9.8
2019-02-22T12:04:03.373Z,9.7
2019-02-22T12:05:03.900Z,9.7
2019-02-22T12:06:03.602Z,9.7
2019-02-22T12:07:02.919Z,9.7
2019-02-22T12:08:03.812Z,9.7
2019-02-22T12:09:03.197Z,9.6
2019-02-22T12:10:03.292Z,9.6
2019-02-22T12:11:03.644Z,9.6
2019-02-22T12:12:03.541Z,9.5
2019-02-22T12:13:03.058Z,9.6
2019-02-22T12:14:03.583Z,9.6
2019-02-22T12:15:02.850Z,9.6
2019-02-22T12:16:03.543Z,9.6
2019-02-22T12:17:03.009Z,9.6
2019-02-22T12:18:03.371Z,9.7
2019-02-22T12:19:02.569Z,9.7
2019-02-22T12:20:03.236Z,9.6
2019-02-22T12:21:02.753Z,9.6
2019-02-22T12:22:03.191Z,9.7
2019-02-22T12:23:03.042Z,9.7
2019-02-22T12:24:02.976Z,9.6
2019-02-22T12:25:03.517Z,9.8
2019-02-22T12:26:03.425Z,9.8
2019-02-22T12:27:03.048Z,9.8
2019-02-22T12:28:03.753Z,9.8
2019-02-22T12:29:03.511Z,9.8
2019-02-22T12:30:03.071Z,9.8
2019-02-22T12:31:03.688Z,9.8
2019-02-22T12:32:03.240Z,9.8
2019-02-22T12:33:03.595Z,9.8
2019-02-22T12:34:02.756Z,9.8
2019-02-22T12:35:03.738Z,9.8
2019-02-22T12:36:03.306Z,9.9
2019-02-22T12:37:03.556Z,9.9
2019-02-22T12:38:02.853Z,9.9
2019-02-22T12:39:03.222Z,10.1
2019-02-22T12:40:03.801Z,10.1
2019-02-22T12:41:03.121Z,10.1
2019-02-22T12:42:03.608Z,10.1
2019-02-22T12:43:02.908Z,10.1
2019-02-22T12:44:03.695Z,10.2
2019-02-22T12:45:03.797Z,10.3
2019-02-22T12:46:03.391Z,10.3
2019-02-22T12:47:03.727Z,10.4
2019-02-22T12:48:03.295Z,10.4
2019-02-22T12:49:03.735Z,10.4
2019-02-22T12:50:03.235Z,10.4
2019-02-22T12:51:03.798Z,10.4
2019-02-22T12:52:02.728Z,10.4
2019-02-22T12:53:03.522Z,10.4
2019-02-22T12:54:03.702Z,10.4
2019-02-22T12:55:03.438Z,10.5
2019-02-22T12:56:03.639Z,10.6
2019-02-22T12:57:02.892Z,10.6
2019-02-22T12:58:03.774Z,10.5
2019-02-22T12:59:03.787Z,10.4
2019-02-22T13:00:03.356Z,10.5
2019-02-22T13:01:03.429Z,10.4
2019-02-22T13:02:03.104Z,10.4
2019-02-22T13:03:03.179Z,10.4
2019-02-22T13:04:03.368Z,10.4
2019-02-22T13:05:03.260Z,10.4
2019-02-22T13:06:03.713Z,10.4
2019-02-22T13:07:02.987Z,10.4
2019-02-22T13:08:03.245Z,10.3
2019-02-22T13:09:03.050Z,10.3
2019-02-22T13:10:03.348Z,10.4
2019-02-22T13:11:02.829Z,10.4
2019-02-22T13:12:17.305Z,10.4
2019-02-22T13:13:03.070Z,10.4
2019-02-22T13:14:03.627Z,10.3
2019-02-22T13:15:14.870Z,10.3
2019-02-22T13:16:03.399Z,10.3
2019-02-22T13:17:02.959Z,10.3
2019-02-22T13:18:03.460Z,10.3
2019-02-22T13:19:02.782Z,10.3
2019-02-22T13:20:02.973Z,10.3
2019-02-22T13:21:03.655Z,10.3
2019-02-22T13:22:02.745Z,10.3
2019-02-22T13:23:03.667Z,10.3
2019-02-22T13:24:03.109Z,10.2
2019-02-22T13:25:03.599Z,10.1
2019-02-22T13:26:02.931Z,10
2019-02-22T13:27:03.296Z,9.9
2019-02-22T13:28:02.996Z,9.9
2019-02-22T13:29:05.236Z,9.9
2019-02-22T13:30:03.292Z,10
2019-02-22T13:31:03.076Z,10.1
2019-02-22T13:32:03.414Z,10.2
2019-02-22T13:33:03.304Z,10.1
2019-02-22T13:34:02.896Z,10.1
2019-02-22T13:35:03.176Z,10.3
2019-02-22T13:36:03.536Z,10.2
2019-02-22T13:37:02.763Z,10.3
2019-02-22T13:38:03.303Z,10.2
2019-02-22T13:39:03.110Z,10.2
2019-02-22T13:40:03.328Z,10.2
2019-02-22T13:41:03.192Z,10.2
2019-02-22T13:42:03.248Z,10.2
2019-02-22T13:43:05.574Z,10.2
2019-02-22T13:44:02.989Z,10.2
2019-02-22T13:45:03.618Z,10.3